createdAt,value
2023-07-18T00:02:06.775Z,19.30
2023-07-18T00:04:40.915Z,19.40
2023-07-18T00:07:08.858Z,19.30
2023-07-18T00:09:44.748Z,19.30
2023-07-18T00:12:18.765Z,19.30
2023-07-18T00:15:05.494Z,19.30
2023-07-18T00:17:42.551Z,19.30
2023-07-18T00:20:20.535Z,19.20
2023-07-18T00:22:50.847Z,19.20
2023-07-18T00:25:20.438Z,19.20
2023-07-18T00:27:55.604Z,19.20
2023-07-18T00:30:29.513Z,19.20
2023-07-18T00:32:57.856Z,19.10
2023-07-18T00:35:28.238Z,19.20
2023-07-18T00:38:01.522Z,19.10
2023-07-18T00:43:21.529Z,19.10
2023-07-18T00:45:50.508Z,19.10
2023-07-18T00:48:18.054Z,19.10
2023-07-18T00:50:51.537Z,19.10
2023-07-18T00:53:18.407Z,19.00
2023-07-18T00:55:52.532Z,19.00
2023-07-18T00:58:19.785Z,19.00
2023-07-18T01:00:53.640Z,19.00
2023-07-18T01:03:20.759Z,19.00
2023-07-18T01:05:48.033Z,19.00
2023-07-18T01:08:21.797Z,19.00
2023-07-18T01:10:48.927Z,19.00
2023-07-18T01:13:22.828Z,18.90
2023-07-18T01:16:09.905Z,18.90
2023-07-18T01:18:44.844Z,18.90
2023-07-18T01:21:19.378Z,18.90
2023-07-18T01:23:53.789Z,18.90
2023-07-18T01:26:20.945Z,18.90
2023-07-18T01:28:47.849Z,18.80
2023-07-18T01:31:21.852Z,18.80
2023-07-18T01:33:49.289Z,18.90
2023-07-18T01:36:16.645Z,18.80
2023-07-18T01:38:49.592Z,18.80
2023-07-18T01:41:16.631Z,18.80
2023-07-18T01:43:50.707Z,18.70
2023-07-18T01:46:17.840Z,18.70
2023-07-18T01:48:51.615Z,18.70
2023-07-18T01:51:18.878Z,18.70
2023-07-18T01:56:19.588Z,18.70
2023-07-18T01:58:46.673Z,18.70
2023-07-18T02:01:13.785Z,18.70
2023-07-18T02:03:47.878Z,18.60
2023-07-18T02:06:14.693Z,18.60
2023-07-18T02:08:47.602Z,18.60
2023-07-18T02:11:14.449Z,18.60
2023-07-18T02:13:47.862Z,18.60
2023-07-18T02:16:27.655Z,18.50
2023-07-18T02:18:55.028Z,18.50
2023-07-18T02:21:28.878Z,18.50
2023-07-18T02:23:55.954Z,18.50
2023-07-18T02:26:23.046Z,18.50
2023-07-18T02:28:56.885Z,18.50
2023-07-18T02:31:24.009Z,18.50
2023-07-18T02:33:50.989Z,18.40
2023-07-18T02:36:25.922Z,18.40
2023-07-18T02:38:52.797Z,18.50
2023-07-18T02:41:25.896Z,18.40
2023-07-18T02:43:52.979Z,18.40
2023-07-18T02:46:19.848Z,18.40
2023-07-18T02:48:53.650Z,18.30
2023-07-18T02:51:21.014Z,18.40
2023-07-18T02:53:50.813Z,18.30
2023-07-18T02:56:24.921Z,18.30
2023-07-18T02:58:51.896Z,18.30
2023-07-18T03:01:27.956Z,18.30
2023-07-18T03:03:55.705Z,18.30
2023-07-18T03:06:31.990Z,18.30
2023-07-18T03:09:05.920Z,18.20
2023-07-18T03:11:39.941Z,18.30
2023-07-18T03:14:08.612Z,18.20
2023-07-18T03:16:42.024Z,18.20
2023-07-18T03:19:11.625Z,18.20
2023-07-18T03:21:44.786Z,18.20
2023-07-18T03:24:19.641Z,18.20
2023-07-18T03:26:46.774Z,18.10
2023-07-18T03:29:14.366Z,18.10
2023-07-18T03:31:48.004Z,18.10
2023-07-18T03:34:15.146Z,18.10
2023-07-18T03:36:48.991Z,18.10
2023-07-18T03:39:17.277Z,18.10
2023-07-18T03:41:51.003Z,18.10
2023-07-18T03:44:18.119Z,18.00
2023-07-18T03:46:45.045Z,18.00
2023-07-18T03:49:18.982Z,18.00
2023-07-18T03:51:45.970Z,18.00
2023-07-18T03:54:19.711Z,18.00
2023-07-18T03:56:47.252Z,18.00
2023-07-18T03:59:14.528Z,18.00
2023-07-18T04:01:49.089Z,18.00
2023-07-18T04:04:22.731Z,18.00
2023-07-18T04:06:49.529Z,17.90
2023-07-18T04:09:16.652Z,17.90
2023-07-18T04:11:53.760Z,17.90
2023-07-18T04:14:26.808Z,17.90
2023-07-18T04:16:59.852Z,17.90
2023-07-18T04:19:39.779Z,17.90
2023-07-18T04:22:06.727Z,17.90
2023-07-18T04:24:33.577Z,17.80
2023-07-18T04:27:06.766Z,17.80
2023-07-18T04:29:34.091Z,17.80
2023-07-18T04:32:00.937Z,17.80
2023-07-18T04:34:34.780Z,17.80
2023-07-18T04:37:01.671Z,17.80
2023-07-18T04:39:35.768Z,17.80
2023-07-18T04:42:03.045Z,17.80
2023-07-18T04:44:36.763Z,17.80
2023-07-18T04:47:04.070Z,17.80
2023-07-18T04:49:43.793Z,17.70
2023-07-18T04:52:10.611Z,17.70
2023-07-18T04:54:38.837Z,17.70
2023-07-18T04:57:13.077Z,17.70
2023-07-18T04:59:50.130Z,17.70
2023-07-18T05:02:24.065Z,17.70
2023-07-18T05:04:51.158Z,17.70
2023-07-18T05:07:25.078Z,17.70
2023-07-18T05:09:51.890Z,17.70
2023-07-18T05:12:19.133Z,17.70
2023-07-18T05:14:52.934Z,17.60
2023-07-18T05:17:25.903Z,17.60
2023-07-18T05:20:05.843Z,17.60
2023-07-18T05:22:32.763Z,17.60
2023-07-18T05:25:00.751Z,17.60
2023-07-18T05:27:33.858Z,17.60
2023-07-18T05:30:07.841Z,17.60
2023-07-18T05:32:34.934Z,17.60
2023-07-18T05:35:09.101Z,17.60
2023-07-18T05:37:35.904Z,17.60
2023-07-18T05:40:04.809Z,17.60
2023-07-18T05:42:39.099Z,17.60
2023-07-18T05:45:08.779Z,17.60
2023-07-18T05:47:36.355Z,17.40
2023-07-18T05:50:12.865Z,17.20
2023-07-18T05:52:39.898Z,17.30
2023-07-18T05:55:08.643Z,17.40
2023-07-18T05:57:41.872Z,17.50
2023-07-18T06:00:11.404Z,17.50
2023-07-18T06:02:44.907Z,17.50
2023-07-18T06:05:12.920Z,17.50
2023-07-18T06:07:39.923Z,17.50
2023-07-18T06:10:24.011Z,17.50
2023-07-18T06:12:51.103Z,17.50
2023-07-18T06:15:43.885Z,17.50
2023-07-18T06:18:21.832Z,17.50
2023-07-18T06:20:55.885Z,17.50
2023-07-18T06:23:29.486Z,17.50
2023-07-18T06:26:03.160Z,17.50
2023-07-18T06:28:37.160Z,17.60
2023-07-18T06:31:04.121Z,17.50
2023-07-18T06:33:37.916Z,17.50
2023-07-18T06:36:05.344Z,17.50
2023-07-18T06:38:32.261Z,17.50
2023-07-18T06:41:06.213Z,17.50
2023-07-18T06:43:33.599Z,17.50
2023-07-18T06:46:00.787Z,17.50
2023-07-18T06:48:33.898Z,17.50
2023-07-18T06:51:03.118Z,17.50
2023-07-18T06:53:29.954Z,17.50
2023-07-18T06:56:02.895Z,17.50
2023-07-18T06:58:36.088Z,17.50
2023-07-18T07:01:03.015Z,17.50
2023-07-18T07:03:31.363Z,17.40
2023-07-18T07:06:04.945Z,17.50
2023-07-18T07:08:32.083Z,17.50
2023-07-18T07:11:14.965Z,17.50
2023-07-18T07:13:41.924Z,17.50
2023-07-18T07:16:21.994Z,17.50
2023-07-18T07:18:55.580Z,17.50
2023-07-18T07:21:28.957Z,17.50
2023-07-18T07:23:57.966Z,17.50
2023-07-18T07:26:31.977Z,17.50
2023-07-18T07:29:05.962Z,17.50
2023-07-18T07:31:32.997Z,17.50
2023-07-18T07:33:59.878Z,17.50
2023-07-18T07:36:33.100Z,17.50
2023-07-18T07:39:00.119Z,17.50
2023-07-18T07:41:27.197Z,17.50
2023-07-18T07:44:01.138Z,17.50
2023-07-18T07:46:28.108Z,17.50
2023-07-18T07:49:05.333Z,17.50
2023-07-18T07:51:32.744Z,17.60
2023-07-18T07:54:07.239Z,17.50
2023-07-18T07:56:34.209Z,17.60
2023-07-18T07:59:11.106Z,17.50
2023-07-18T08:01:46.297Z,17.60
2023-07-18T08:04:13.397Z,17.60
2023-07-18T08:06:41.053Z,17.60
2023-07-18T08:09:14.145Z,17.60
2023-07-18T08:11:41.227Z,17.60
2023-07-18T08:14:08.869Z,17.60
2023-07-18T08:16:42.448Z,17.60
2023-07-18T08:19:16.197Z,17.70
2023-07-18T08:21:56.278Z,17.70
2023-07-18T08:24:23.363Z,17.70
2023-07-18T08:26:57.133Z,17.70
2023-07-18T08:29:38.346Z,17.70
2023-07-18T08:32:06.199Z,17.70
2023-07-18T08:34:33.293Z,17.70
2023-07-18T08:37:07.294Z,17.80
2023-07-18T08:39:34.946Z,17.70
2023-07-18T08:42:11.308Z,17.80
2023-07-18T08:44:39.236Z,17.80
2023-07-18T08:47:14.303Z,17.80
2023-07-18T08:49:48.301Z,17.80
2023-07-18T08:52:15.216Z,17.80
2023-07-18T08:54:42.316Z,17.80
2023-07-18T08:57:16.326Z,17.80
2023-07-18T08:59:48.878Z,17.90
2023-07-18T09:02:23.438Z,17.90
2023-07-18T09:04:52.270Z,17.90
2023-07-18T09:07:21.056Z,17.90
2023-07-18T09:09:58.220Z,18.00
2023-07-18T09:12:32.081Z,18.00
2023-07-18T09:14:59.234Z,18.00
2023-07-18T09:17:40.272Z,18.00
2023-07-18T09:20:25.108Z,18.00
2023-07-18T09:22:58.782Z,18.00
2023-07-18T09:25:33.070Z,18.10
2023-07-18T09:27:59.977Z,18.10
2023-07-18T09:30:51.147Z,18.10
2023-07-18T09:33:25.804Z,18.20
2023-07-18T09:35:59.088Z,18.20
2023-07-18T09:38:33.088Z,18.30
2023-07-18T09:41:00.403Z,18.30
2023-07-18T09:43:31.493Z,18.30
2023-07-18T09:46:06.114Z,18.40
2023-07-18T09:48:44.612Z,18.40
2023-07-18T09:51:23.265Z,18.50
2023-07-18T09:53:50.319Z,18.50
2023-07-18T09:56:25.105Z,18.50
2023-07-18T09:58:53.252Z,18.50
2023-07-18T10:01:34.387Z,18.60
2023-07-18T10:04:08.119Z,18.60
2023-07-18T10:06:35.469Z,18.70
2023-07-18T10:09:10.124Z,18.70
2023-07-18T10:12:08.189Z,18.80
2023-07-18T10:15:12.145Z,18.80
2023-07-18T10:17:52.184Z,18.90
2023-07-18T10:20:38.232Z,18.90
2023-07-18T10:23:13.182Z,19.00
2023-07-18T10:25:40.492Z,19.00
2023-07-18T10:28:07.743Z,19.00
2023-07-18T10:30:49.150Z,19.10
2023-07-18T10:33:16.358Z,19.10
2023-07-18T10:35:43.404Z,19.20
2023-07-18T10:38:17.135Z,19.20
2023-07-18T10:40:51.158Z,19.20
2023-07-18T10:43:19.369Z,19.30
2023-07-18T10:45:53.176Z,19.30
2023-07-18T10:48:21.596Z,19.30
2023-07-18T10:50:49.445Z,19.30
2023-07-18T10:53:27.427Z,19.30
2023-07-18T10:55:57.503Z,19.40
2023-07-18T10:58:24.554Z,19.50
2023-07-18T11:00:58.503Z,19.50
2023-07-18T11:03:28.939Z,19.50
2023-07-18T11:05:56.090Z,19.60
2023-07-18T11:08:33.170Z,19.60
2023-07-18T11:11:13.207Z,19.70
2023-07-18T11:13:48.190Z,19.70
2023-07-18T11:16:35.208Z,19.70
2023-07-18T11:19:08.211Z,19.80
2023-07-18T11:21:37.004Z,19.80
2023-07-18T11:24:04.948Z,19.80
2023-07-18T11:26:38.203Z,19.90
2023-07-18T11:29:05.612Z,19.90
2023-07-18T11:31:46.616Z,19.90
2023-07-18T11:34:23.407Z,19.90
2023-07-18T11:36:57.242Z,20.00
2023-07-18T11:39:24.129Z,20.00
2023-07-18T11:41:53.488Z,20.00
2023-07-18T11:44:34.242Z,20.10
2023-07-18T11:47:01.141Z,20.10
2023-07-18T11:49:42.210Z,20.20
2023-07-18T11:52:10.066Z,20.30
2023-07-18T11:54:43.227Z,20.30
2023-07-18T11:57:10.045Z,20.40
2023-07-18T11:59:36.874Z,20.50
2023-07-18T12:02:10.512Z,20.60
2023-07-18T12:04:40.185Z,20.60
2023-07-18T12:07:08.010Z,20.60
2023-07-18T12:09:41.255Z,20.60
2023-07-18T12:12:08.984Z,20.60
2023-07-18T12:14:36.542Z,20.60
2023-07-18T12:17:10.535Z,20.70
2023-07-18T12:19:45.612Z,20.70
2023-07-18T12:22:20.502Z,20.70
2023-07-18T12:24:48.731Z,20.80
2023-07-18T12:27:23.552Z,20.80
2023-07-18T12:29:50.668Z,20.90
2023-07-18T12:32:28.063Z,20.80
2023-07-18T12:34:57.490Z,20.90
2023-07-18T12:37:31.305Z,20.90
2023-07-18T12:40:04.468Z,21.00
2023-07-18T12:42:31.569Z,21.00
2023-07-18T12:45:05.306Z,21.10
2023-07-18T12:47:32.215Z,21.10
2023-07-18T12:49:59.070Z,21.20
2023-07-18T12:52:32.324Z,21.20
2023-07-18T12:54:59.426Z,21.20
2023-07-18T12:57:34.571Z,21.30
2023-07-18T13:00:17.215Z,21.30
2023-07-18T13:02:54.426Z,21.30
2023-07-18T13:05:21.556Z,21.40
2023-07-18T13:07:55.691Z,21.40
2023-07-18T13:10:23.783Z,21.50
2023-07-18T13:12:57.571Z,21.50
2023-07-18T13:15:31.613Z,21.50
2023-07-18T13:18:05.729Z,21.80
2023-07-18T13:20:45.569Z,21.80
2023-07-18T13:23:12.734Z,21.80
2023-07-18T13:25:46.580Z,21.80
2023-07-18T13:28:13.686Z,21.90
2023-07-18T13:30:42.846Z,21.90
2023-07-18T13:33:16.598Z,21.90
2023-07-18T13:35:43.735Z,21.90
2023-07-18T13:38:17.346Z,22.00
2023-07-18T13:40:46.602Z,22.00
2023-07-18T13:43:20.677Z,22.10
2023-07-18T13:45:49.629Z,22.10
2023-07-18T13:48:16.849Z,22.20
2023-07-18T13:50:50.643Z,22.20
2023-07-18T13:53:17.759Z,22.30
2023-07-18T13:55:44.753Z,22.30
2023-07-18T13:58:18.379Z,22.40
2023-07-18T14:00:45.580Z,22.40
2023-07-18T14:03:27.975Z,22.40
2023-07-18T14:06:06.382Z,22.50
2023-07-18T14:08:39.627Z,22.60
2023-07-18T14:11:06.861Z,22.60
2023-07-18T14:13:40.641Z,22.70
2023-07-18T14:16:14.082Z,22.70
2023-07-18T14:18:53.374Z,22.80
2023-07-18T14:21:26.641Z,22.80
2023-07-18T14:23:53.777Z,22.90
2023-07-18T14:26:21.660Z,22.90
2023-07-18T14:28:55.650Z,23.00
2023-07-18T14:31:22.776Z,23.10
2023-07-18T14:34:05.384Z,23.10
2023-07-18T14:36:32.956Z,23.40
2023-07-18T14:39:06.415Z,23.50
2023-07-18T14:41:33.285Z,23.50
2023-07-18T14:44:00.156Z,23.50
2023-07-18T14:46:33.466Z,23.50
2023-07-18T14:49:00.398Z,23.50
2023-07-18T14:51:33.424Z,23.60
2023-07-18T14:54:00.399Z,23.60
2023-07-18T14:56:28.980Z,23.70
2023-07-18T14:59:02.441Z,23.70
2023-07-18T15:01:36.466Z,23.70
2023-07-18T15:04:10.470Z,23.80
2023-07-18T15:06:37.340Z,23.80
2023-07-18T15:09:04.178Z,23.80
2023-07-18T15:11:37.436Z,23.90
2023-07-18T15:14:04.273Z,23.90
2023-07-18T15:16:37.499Z,24.00
2023-07-18T15:19:10.551Z,24.00
2023-07-18T15:21:50.477Z,24.10
2023-07-18T15:24:18.295Z,24.10
2023-07-18T15:26:45.247Z,24.20
2023-07-18T15:29:18.735Z,24.20
2023-07-18T15:31:52.488Z,24.20
2023-07-18T15:34:19.304Z,24.30
2023-07-18T15:36:48.804Z,24.30
2023-07-18T15:39:22.735Z,24.30
2023-07-18T15:41:49.570Z,24.30
2023-07-18T15:44:22.502Z,24.40
2023-07-18T15:46:56.749Z,24.40
2023-07-18T15:49:30.489Z,24.40
2023-07-18T15:52:03.764Z,24.40
2023-07-18T15:54:37.500Z,24.40
2023-07-18T15:57:11.489Z,24.40
2023-07-18T15:59:38.461Z,24.40
2023-07-18T16:02:12.914Z,24.40
2023-07-18T16:04:39.914Z,24.40
2023-07-18T16:07:07.183Z,24.30
2023-07-18T16:09:54.785Z,24.30
2023-07-18T16:12:21.662Z,24.30
2023-07-18T16:14:49.212Z,24.30
2023-07-18T16:17:22.529Z,24.40
2023-07-18T16:19:57.388Z,24.30
2023-07-18T16:22:31.805Z,24.40
2023-07-18T16:24:58.791Z,24.40
2023-07-18T16:27:25.660Z,24.40
2023-07-18T16:29:58.557Z,24.40
2023-07-18T16:32:27.867Z,24.40
2023-07-18T16:34:55.338Z,24.40
2023-07-18T16:37:29.704Z,24.40
2023-07-18T16:40:03.684Z,24.40
2023-07-18T16:42:30.944Z,24.40
2023-07-18T16:45:04.571Z,24.50
2023-07-18T16:47:31.452Z,24.50
2023-07-18T16:50:04.578Z,24.50
2023-07-18T16:52:31.521Z,24.50
2023-07-18T16:54:58.470Z,24.60
2023-07-18T16:57:31.705Z,24.60
2023-07-18T17:00:04.818Z,24.60
2023-07-18T17:02:31.916Z,24.60
2023-07-18T17:04:59.461Z,24.70
2023-07-18T17:07:32.833Z,24.60
2023-07-18T17:10:00.809Z,24.60
2023-07-18T17:12:34.695Z,24.60
2023-07-18T17:15:01.677Z,24.60
2023-07-18T17:17:48.903Z,24.70
2023-07-18T17:20:22.863Z,24.70
2023-07-18T17:22:50.030Z,24.70
2023-07-18T17:25:23.731Z,24.70
2023-07-18T17:27:50.729Z,24.80
2023-07-18T17:30:17.698Z,24.70
2023-07-18T17:32:50.883Z,24.70
2023-07-18T17:35:18.214Z,24.70
2023-07-18T17:37:45.309Z,24.70
2023-07-18T17:40:19.858Z,24.70
2023-07-18T17:42:53.618Z,24.80
2023-07-18T17:45:21.392Z,24.80
2023-07-18T17:47:48.661Z,24.80
2023-07-18T17:50:22.864Z,24.80
2023-07-18T17:52:49.967Z,24.60
2023-07-18T17:55:17.128Z,24.50
2023-07-18T17:57:50.875Z,24.60
2023-07-18T18:00:18.435Z,24.60
2023-07-18T18:02:52.002Z,24.70
2023-07-18T18:05:47.119Z,24.70
2023-07-18T18:08:21.926Z,24.70
2023-07-18T18:10:49.524Z,24.70
2023-07-18T18:13:17.101Z,24.70
2023-07-18T18:16:06.166Z,24.70
2023-07-18T18:18:41.521Z,24.70
2023-07-18T18:21:16.681Z,24.70
2023-07-18T18:23:49.676Z,24.70
2023-07-18T18:26:23.657Z,24.70
2023-07-18T18:28:50.758Z,24.70
2023-07-18T18:31:24.335Z,24.70
2023-07-18T18:33:51.593Z,24.70
2023-07-18T18:36:30.932Z,24.70
2023-07-18T18:39:04.938Z,24.70
2023-07-18T18:41:32.022Z,24.60
2023-07-18T18:44:05.941Z,24.60
2023-07-18T18:46:32.825Z,24.60
2023-07-18T18:49:03.625Z,24.60
2023-07-18T18:51:37.962Z,24.60
2023-07-18T18:54:05.030Z,24.60
2023-07-18T18:56:38.971Z,24.60
2023-07-18T18:59:05.816Z,24.50
2023-07-18T19:01:39.729Z,24.50
2023-07-18T19:04:06.555Z,24.50
2023-07-18T19:06:33.470Z,24.50
2023-07-18T19:09:10.732Z,24.50
2023-07-18T19:11:37.602Z,24.40
2023-07-18T19:14:05.238Z,24.40
2023-07-18T19:16:39.924Z,24.40
2023-07-18T19:19:21.731Z,24.40
2023-07-18T19:22:01.734Z,24.30
2023-07-18T19:24:28.580Z,24.30
2023-07-18T19:26:55.521Z,24.30
2023-07-18T19:29:28.738Z,24.30
2023-07-18T19:31:55.821Z,24.20
2023-07-18T19:34:22.994Z,24.20
2023-07-18T19:36:56.748Z,24.20
2023-07-18T19:39:29.761Z,24.20
2023-07-18T19:41:56.727Z,24.20
2023-07-18T19:44:29.738Z,24.20
2023-07-18T19:46:58.763Z,24.10
2023-07-18T19:49:26.307Z,24.10
2023-07-18T19:52:09.036Z,24.10
2023-07-18T19:54:43.005Z,24.10
2023-07-18T19:57:09.969Z,24.10
2023-07-18T19:59:44.066Z,24.00
2023-07-18T20:02:10.985Z,24.00
2023-07-18T20:04:37.995Z,24.00
2023-07-18T20:07:11.800Z,24.00
2023-07-18T20:09:44.793Z,23.90
2023-07-18T20:12:11.622Z,23.90
2023-07-18T20:14:38.411Z,23.90
2023-07-18T20:17:11.794Z,23.80
2023-07-18T20:19:45.779Z,23.80
2023-07-18T20:22:31.131Z,23.80
2023-07-18T20:24:58.236Z,23.80
2023-07-18T20:27:25.409Z,23.80
2023-07-18T20:29:59.077Z,23.70
2023-07-18T20:32:26.192Z,23.70
2023-07-18T20:34:53.149Z,23.70
2023-07-18T20:37:26.849Z,23.70
2023-07-18T20:39:53.960Z,23.60
2023-07-18T20:42:33.953Z,23.60
2023-07-18T20:45:08.900Z,23.60
2023-07-18T20:47:35.792Z,23.60
2023-07-18T20:50:10.831Z,23.60
2023-07-18T20:52:37.902Z,23.50
2023-07-18T20:55:05.628Z,23.50
2023-07-18T20:57:38.972Z,23.50
2023-07-18T21:00:07.249Z,23.50
2023-07-18T21:02:40.878Z,23.40
2023-07-18T21:05:08.192Z,23.40
2023-07-18T21:07:41.976Z,23.40
2023-07-18T21:10:09.545Z,23.40
2023-07-18T21:12:42.855Z,23.30
2023-07-18T21:15:10.933Z,23.30
2023-07-18T21:17:50.943Z,23.30
2023-07-18T21:20:23.995Z,23.20
2023-07-18T21:22:57.927Z,23.20
2023-07-18T21:25:24.848Z,23.20
2023-07-18T21:27:52.097Z,23.20
2023-07-18T21:30:25.887Z,23.20
2023-07-18T21:32:53.102Z,23.10
2023-07-18T21:35:23.322Z,23.10
2023-07-18T21:37:56.883Z,23.10
2023-07-18T21:40:23.870Z,23.10
2023-07-18T21:42:56.923Z,23.00
2023-07-18T21:45:29.905Z,23.00
2023-07-18T21:47:57.013Z,23.00
2023-07-18T21:50:30.928Z,23.00
2023-07-18T21:53:03.911Z,22.90
2023-07-18T21:55:37.182Z,22.90
2023-07-18T21:58:10.906Z,22.90
2023-07-18T22:00:44.180Z,22.90
2023-07-18T22:03:11.430Z,22.80
2023-07-18T22:05:38.584Z,22.80
2023-07-18T22:08:12.157Z,22.80
2023-07-18T22:10:39.308Z,22.80
2023-07-18T22:13:06.397Z,22.70
2023-07-18T22:15:40.069Z,22.70
2023-07-18T22:18:27.990Z,22.70
2023-07-18T22:21:01.920Z,22.70
2023-07-18T22:23:36.237Z,22.60
2023-07-18T22:26:13.714Z,22.60
2023-07-18T22:28:49.114Z,22.60
2023-07-18T22:31:16.275Z,22.60
2023-07-18T22:33:43.193Z,22.50
2023-07-18T22:36:17.214Z,22.50
2023-07-18T22:38:44.348Z,22.50
2023-07-18T22:41:18.356Z,22.50
2023-07-18T22:43:45.292Z,22.40
2023-07-18T22:46:12.398Z,22.40
2023-07-18T22:48:46.205Z,22.40
2023-07-18T22:51:13.180Z,22.40
2023-07-18T22:53:47.225Z,22.30
2023-07-18T22:56:15.515Z,22.30
2023-07-18T22:58:49.231Z,22.30
2023-07-18T23:01:16.885Z,22.30
2023-07-18T23:03:50.044Z,22.20
2023-07-18T23:06:17.206Z,22.20
2023-07-18T23:08:51.272Z,22.20
2023-07-18T23:11:18.599Z,22.20
2023-07-18T23:13:45.882Z,22.20
2023-07-18T23:16:22.263Z,22.10
2023-07-18T23:18:56.100Z,22.10
2023-07-18T23:21:29.273Z,22.10
2023-07-18T23:23:56.597Z,22.10
2023-07-18T23:26:29.989Z,22.00
2023-07-18T23:28:56.824Z,22.00
2023-07-18T23:31:30.009Z,22.00
2023-07-18T23:33:57.304Z,22.00
2023-07-18T23:36:24.575Z,22.00
2023-07-18T23:38:57.994Z,21.90
2023-07-18T23:41:24.989Z,21.90
2023-07-18T23:43:53.156Z,21.90
2023-07-18T23:46:26.076Z,21.90
2023-07-18T23:48:52.968Z,21.80
2023-07-18T23:51:28.019Z,21.80
2023-07-18T23:53:54.935Z,21.80
2023-07-18T23:56:28.066Z,21.80
2023-07-18T23:58:55.421Z,21.80
